Main page
METAR-TAF:

METAR-TAF

Airports :

Basra, Iraq

Basra International Airport

latitude: 30-32-56N, longitude: 47-39-45E, elevation: 1 m

Current weather observation

The report was made 53 minutes ago, at 04:00 UTC
Wind 5 kt from the West/Southwest
Temperature 15°C
Humidity 39%
Pressure 1011 hPa
Visibility 10 km or more
no clouds below 1500 m and no cumulonimbus

METAR: ORMM 220400Z 25005KT CAVOK 15/01 Q1011 NOSIG

Time: 07:53 (04:53 UTC)

Forecast

The report was made 6 hours and 53 minutes ago, at 22:00 UTC
Forecast valid from 22 at 00 UTC to 22 at 24 UTC
Wind 6 kt from the Northwest
Visibility 10 km or more
no clouds below 1500 m and no cumulonimbus

TAF: ORMM 212200Z 2200/2224 31006KT CAVOK

Weather observations and forecasts of more than 4000 airports (METAR and TAF reports).

The available stations are represented by yellow and red dots on the map.

Hover mouse over dot to see the name of the station.

Then click to see weather observations and forecasts.

To change the map : click on the green buttons with a black cross to zoom in, on the green button with a dash to zoom out, or on the green arrows for adjacent maps.


METAR-TAF: